Time;durP1;ratioP1;P1;durP2;ratioP2;P2;SDS_P1;SDS_P2;PMS_P1;PMS_P2;Temp;Humidity;BMP_temperature;BMP_pressure;BME280_temperature;BME280_humidity;BME280_pressure;Samples;Min_cycle;Max_cycle;Signal;HPM_P1;HPM_P2
2022/05/08 00:21:08;;;;;;;29.47;18.30;;;16.00;99.90;;;;;;5437122;23;20279;-90
2022/05/08 00:23:35;;;;;;;28.27;17.20;;;16.00;99.90;;;;;;5018862;28;20184;-90
2022/05/08 00:26:00;;;;;;;30.37;18.10;;;16.00;99.90;;;;;;5018431;28;20180;-90
2022/05/08 00:28:26;;;;;;;28.77;18.20;;;16.00;99.90;;;;;;5018617;28;20667;-91
2022/05/08 00:30:52;;;;;;;30.77;18.30;;;16.00;99.90;;;;;;5018379;28;20196;-90
2022/05/08 00:33:17;;;;;;;25.37;15.93;;;16.00;99.90;;;;;;5018446;28;20300;-90
2022/05/08 00:35:43;;;;;;;29.43;17.17;;;16.00;99.90;;;;;;5018769;28;20812;-90
2022/05/08 00:38:09;;;;;;;26.37;16.87;;;16.30;99.90;;;;;;5018574;28;20218;-90
2022/05/08 00:40:37;;;;;;;31.27;17.13;;;16.40;99.90;;;;;;5002663;28;20534;-90
2022/05/08 00:43:26;;;;;;;27.00;16.97;;;16.40;99.90;;;;;;4998624;28;20260;-90
2022/05/08 00:45:52;;;;;;;24.47;15.37;;;16.50;99.90;;;;;;4999190;28;20182;-90
2022/05/08 00:48:19;;;;;;;25.83;16.03;;;16.60;99.90;;;;;;4998810;28;20193;-90
2022/05/08 00:50:45;;;;;;;26.33;15.20;;;16.70;99.90;;;;;;5011501;28;20271;-90
2022/05/08 00:53:11;;;;;;;24.77;15.07;;;16.80;99.90;;;;;;5018297;28;20295;-91
2022/05/08 00:55:38;;;;;;;23.07;14.20;;;16.80;99.90;;;;;;5018261;28;20185;-90
2022/05/08 00:58:05;;;;;;;20.17;13.13;;;16.70;99.90;;;;;;5012045;28;20569;-90
2022/05/08 01:00:31;;;;;;;20.03;12.47;;;16.70;99.90;;;;;;5008751;28;20645;-90
2022/05/08 01:02:57;;;;;;;17.77;11.50;;;16.80;99.90;;;;;;5017927;28;20223;-90
2022/05/08 01:05:23;;;;;;;18.03;11.47;;;17.00;99.90;;;;;;5018323;28;20637;-90
2022/05/08 01:07:49;;;;;;;21.27;11.60;;;17.20;99.90;;;;;;5017766;28;20353;-91
2022/05/08 01:10:16;;;;;;;18.43;12.37;;;17.10;99.90;;;;;;5011889;28;20181;-90
2022/05/08 01:12:45;;;;;;;16.40;10.90;;;17.10;99.90;;;;;;4998387;28;20340;-90
2022/05/08 01:15:17;;;;;;;11.97;9.27;;;17.20;99.90;;;;;;4998017;28;20191;-90
2022/05/08 01:17:42;;;;;;;11.77;8.87;;;17.20;99.90;;;;;;4998538;28;20178;-90
2022/05/08 01:20:08;;;;;;;15.50;8.83;;;17.10;99.90;;;;;;5002541;28;20283;-90
2022/05/08 01:22:36;;;;;;;14.87;8.53;;;17.10;99.90;;;;;;5017058;28;20180;-90
2022/05/08 01:25:03;;;;;;;10.23;7.40;;;16.90;99.90;;;;;;5017702;28;20184;-90
2022/05/08 01:27:29;;;;;;;10.43;7.60;;;16.80;99.90;;;;;;5017867;28;20199;-90
2022/05/08 01:29:55;;;;;;;11.27;8.20;;;16.60;99.90;;;;;;5015750;28;20176;-89
2022/05/08 01:32:21;;;;;;;10.33;7.80;;;16.60;99.90;;;;;;4997928;28;20188;-91
2022/05/08 01:34:46;;;;;;;13.10;8.43;;;16.60;99.90;;;;;;4997441;28;20213;-90
2022/05/08 01:37:12;;;;;;;11.17;7.73;;;16.60;99.90;;;;;;4997787;28;20196;-90
2022/05/08 01:39:38;;;;;;;10.80;7.30;;;16.60;99.90;;;;;;4998946;28;20664;-90
2022/05/08 01:42:04;;;;;;;11.10;7.53;;;16.30;99.90;;;;;;5017404;28;20633;-90
2022/05/08 01:44:30;;;;;;;9.07;6.93;;;16.10;99.90;;;;;;5017721;28;20190;-90
2022/05/08 01:49:40;;;;;;;10.27;7.57;;;15.90;99.90;;;;;;5024997;28;20639;-90
2022/05/08 01:52:06;;;;;;;9.30;7.77;;;15.90;99.90;;;;;;5015424;28;20184;-90
2022/05/08 01:54:32;;;;;;;11.27;7.77;;;15.80;99.90;;;;;;5017244;28;20222;-90
2022/05/08 01:56:59;;;;;;;12.07;8.27;;;15.90;99.90;;;;;;5007014;28;20280;-90
2022/05/08 01:59:25;;;;;;;12.63;8.47;;;15.90;99.90;;;;;;4997807;28;20276;-91
2022/05/08 02:01:51;;;;;;;13.93;8.03;;;15.90;99.90;;;;;;4998141;28;20713;-90
2022/05/08 02:04:18;;;;;;;11.00;8.37;;;15.90;99.90;;;;;;4997276;28;20180;-90
2022/05/08 02:06:47;;;;;;;12.83;7.40;;;15.80;99.90;;;;;;4997209;28;20271;-90
2022/05/08 02:09:13;;;;;;;11.50;7.80;;;15.90;99.90;;;;;;4996889;28;20185;-90
2022/05/08 02:11:38;;;;;;;11.17;7.23;;;15.90;99.90;;;;;;4997700;28;20652;-90
2022/05/08 02:14:06;;;;;;;9.40;7.17;;;15.90;99.90;;;;;;4996965;28;20747;-90
2022/05/08 02:16:31;;;;;;;11.33;7.53;;;15.80;99.90;;;;;;4999546;28;20703;-90
2022/05/08 02:18:59;;;;;;;11.83;7.17;;;15.60;99.90;;;;;;5017115;28;20180;-90
2022/05/08 02:21:25;;;;;;;11.17;7.30;;;15.60;99.90;;;;;;5016137;28;20255;-90
2022/05/08 02:23:51;;;;;;;11.00;7.00;;;15.60;99.90;;;;;;5017519;28;20180;-90
2022/05/08 02:26:16;;;;;;;12.93;7.17;;;15.70;99.90;;;;;;5017028;28;20177;-90
2022/05/08 02:28:43;;;;;;;10.53;6.97;;;15.70;99.90;;;;;;5016321;28;20214;-90
2022/05/08 02:31:09;;;;;;;9.07;6.50;;;15.70;99.90;;;;;;5016029;28;20181;-90
2022/05/08 02:33:34;;;;;;;9.20;6.07;;;15.60;99.90;;;;;;5016710;28;20285;-90
2022/05/08 02:36:00;;;;;;;10.70;6.97;;;15.80;99.90;;;;;;5016730;28;20195;-90
2022/05/08 02:38:25;;;;;;;9.50;5.70;;;15.80;99.90;;;;;;4999521;28;20177;-89
2022/05/08 02:40:52;;;;;;;8.67;6.27;;;15.90;99.90;;;;;;4996941;28;20193;-90
2022/05/08 02:43:20;;;;;;;10.30;5.63;;;15.80;99.90;;;;;;4996744;28;20272;-90
2022/05/08 02:45:47;;;;;;;6.70;5.23;;;15.70;99.90;;;;;;4996602;28;20662;-90
2022/05/08 02:48:13;;;;;;;7.80;4.93;;;15.80;99.90;;;;;;5010919;28;20199;-90
2022/05/08 02:50:39;;;;;;;10.73;5.60;;;15.90;99.90;;;;;;5016072;28;20192;-90
2022/05/08 02:53:05;;;;;;;8.47;5.50;;;15.80;99.90;;;;;;5016214;28;20283;-90
2022/05/08 02:58:33;;;;;;;8.03;5.10;;;15.60;99.90;;;;;;5015643;28;20267;-90
2022/05/08 03:00:59;;;;;;;7.80;5.40;;;15.70;99.90;;;;;;4996468;28;20234;-90
2022/05/08 03:03:25;;;;;;;8.70;5.60;;;15.80;99.90;;;;;;4995612;28;20553;-90
2022/05/08 03:05:52;;;;;;;8.33;5.13;;;15.80;99.90;;;;;;4996037;28;20208;-90
2022/05/08 03:08:19;;;;;;;7.87;5.40;;;15.70;99.90;;;;;;5014192;28;20183;-90
2022/05/08 03:13:35;;;;;;;10.10;5.30;;;15.80;99.90;;;;;;5033663;28;20328;-90
2022/05/08 03:16:01;;;;;;;8.00;5.10;;;15.80;99.90;;;;;;5015202;28;20183;-90
2022/05/08 03:18:27;;;;;;;9.10;5.90;;;15.70;99.90;;;;;;4995816;28;20548;-89
2022/05/08 03:20:52;;;;;;;10.37;5.00;;;15.90;99.90;;;;;;4996011;28;20193;-90
2022/05/08 03:23:18;;;;;;;8.67;5.00;;;16.10;99.90;;;;;;4996239;28;20188;-90
2022/05/08 03:25:44;;;;;;;7.53;5.00;;;16.00;99.90;;;;;;4996046;28;20196;-90
2022/05/08 03:28:11;;;;;;;6.80;4.93;;;16.00;99.90;;;;;;5013604;28;20202;-90
2022/05/08 03:30:37;;;;;;;9.33;4.80;;;16.00;99.90;;;;;;5015831;28;20180;-89
2022/05/08 03:33:03;;;;;;;9.00;5.30;;;16.10;99.90;;;;;;5015345;28;20281;-90
2022/05/08 03:35:28;;;;;;;9.90;5.30;;;16.30;99.90;;;;;;5015944;28;20200;-90
2022/05/08 03:37:54;;;;;;;8.03;5.50;;;16.40;99.90;;;;;;5000911;28;20662;-90
2022/05/08 03:40:20;;;;;;;7.73;4.73;;;16.30;99.90;;;;;;4995890;28;20195;-90
2022/05/08 03:42:45;;;;;;;8.10;4.90;;;16.30;99.90;;;;;;4995894;28;20233;-90
2022/05/08 03:45:11;;;;;;;6.07;4.90;;;16.20;99.90;;;;;;4996196;28;20189;-90
2022/05/08 03:47:37;;;;;;;7.83;4.93;;;16.20;99.90;;;;;;5008183;28;20192;-90
2022/05/08 03:50:02;;;;;;;7.77;4.87;;;16.20;99.90;;;;;;5015199;28;20621;-91
2022/05/08 03:52:28;;;;;;;6.80;4.90;;;16.20;99.90;;;;;;5015631;28;20185;-90
2022/05/08 03:54:54;;;;;;;11.47;4.93;;;16.30;99.90;;;;;;5015653;28;20633;-91
2022/05/08 03:57:19;;;;;;;7.73;5.33;;;16.20;99.90;;;;;;5003819;28;20192;-90
2022/05/08 03:59:45;;;;;;;8.00;4.77;;;16.20;99.90;;;;;;4997263;28;20189;-90
2022/05/08 04:02:10;;;;;;;9.20;5.30;;;16.20;99.90;;;;;;4995606;28;20278;-90
2022/05/08 04:04:36;;;;;;;10.63;5.73;;;16.10;99.90;;;;;;4996510;28;20547;-91
2022/05/08 04:07:02;;;;;;;12.07;4.97;;;16.30;99.90;;;;;;5003733;28;20177;-90
2022/05/08 04:09:28;;;;;;;10.87;5.70;;;16.30;99.90;;;;;;5015524;28;20250;-90
2022/05/08 04:11:54;;;;;;;7.67;5.03;;;16.20;99.90;;;;;;5015401;28;20176;-90
2022/05/08 04:14:20;;;;;;;8.47;4.90;;;16.10;99.90;;;;;;5016612;28;20684;-90
2022/05/08 04:16:47;;;;;;;9.23;5.10;;;16.00;99.90;;;;;;5009794;28;20169;-90
2022/05/08 04:19:13;;;;;;;8.27;5.73;;;16.00;99.90;;;;;;4999677;28;20176;-90
2022/05/08 04:21:38;;;;;;;10.50;5.13;;;16.10;99.90;;;;;;4999886;28;20649;-90
2022/05/08 04:24:19;;;;;;;8.40;5.20;;;16.10;99.90;;;;;;4999576;28;20653;-90
2022/05/08 04:26:46;;;;;;;11.60;6.03;;;16.00;99.90;;;;;;5001102;28;20482;-92
2022/05/08 04:29:11;;;;;;;9.47;5.77;;;16.10;99.90;;;;;;5012949;28;20193;-91
2022/05/08 04:31:37;;;;;;;8.37;6.10;;;16.10;99.90;;;;;;5012606;28;20176;-91
2022/05/08 04:34:03;;;;;;;8.27;5.70;;;16.00;99.90;;;;;;5008855;28;20677;-90
2022/05/08 04:36:29;;;;;;;9.77;5.83;;;16.00;99.90;;;;;;5005046;28;20192;-88
2022/05/08 04:38:55;;;;;;;10.37;6.27;;;16.00;99.90;;;;;;5018937;28;20241;-90
2022/05/08 04:41:20;;;;;;;11.60;7.07;;;16.10;99.90;;;;;;5018740;28;20176;-90
2022/05/08 04:43:46;;;;;;;10.57;6.43;;;16.10;99.90;;;;;;5018758;28;20259;-90
2022/05/08 04:46:12;;;;;;;9.57;6.83;;;15.80;99.90;;;;;;5016471;28;20243;-89
2022/05/08 04:48:38;;;;;;;10.83;6.87;;;15.80;99.90;;;;;;5018172;28;20271;-90
2022/05/08 04:51:04;;;;;;;10.33;6.60;;;15.70;99.90;;;;;;5018311;28;20716;-90
2022/05/08 04:53:33;;;;;;;13.03;6.43;;;15.60;99.90;;;;;;5018123;28;20208;-90
2022/05/08 04:55:59;;;;;;;10.50;6.53;;;15.60;99.90;;;;;;5018112;28;20176;-89
2022/05/08 04:58:29;;;;;;;8.67;6.20;;;15.60;99.90;;;;;;4998299;28;20180;-90
2022/05/08 05:00:57;;;;;;;12.43;6.57;;;15.90;99.90;;;;;;4998633;28;20236;-89
2022/05/08 05:03:24;;;;;;;12.53;7.80;;;15.90;99.90;;;;;;5013192;28;20657;-89
2022/05/08 05:05:50;;;;;;;10.67;6.83;;;15.90;99.90;;;;;;5018131;28;20551;-90
2022/05/08 05:08:15;;;;;;;15.40;7.10;;;15.90;99.90;;;;;;5017872;28;20176;-90
2022/05/08 05:10:41;;;;;;;10.33;7.57;;;15.90;99.90;;;;;;5016568;28;20635;-90
2022/05/08 05:13:07;;;;;;;12.00;6.97;;;15.90;99.90;;;;;;5018281;28;20208;-90
2022/05/08 05:15:32;;;;;;;8.97;7.20;;;15.90;99.90;;;;;;5017717;28;20175;-89
2022/05/08 05:18:01;;;;;;;14.77;7.97;;;16.00;99.90;;;;;;5009574;28;20634;-90
2022/05/08 05:20:27;;;;;;;9.80;7.40;;;16.00;99.90;;;;;;5010406;28;20283;-90
2022/05/08 05:22:53;;;;;;;9.07;6.80;;;16.10;99.90;;;;;;5018206;28;20176;-90
2022/05/08 05:25:18;;;;;;;12.07;7.50;;;16.10;99.90;;;;;;5016742;28;20564;-90
2022/05/08 05:27:45;;;;;;;11.10;7.33;;;16.20;99.90;;;;;;5013482;28;20316;-89
2022/05/08 05:30:11;;;;;;;12.60;7.67;;;16.20;99.90;;;;;;5007667;28;20611;-90
2022/05/08 05:32:39;;;;;;;11.60;7.23;;;16.20;99.90;;;;;;5017492;28;20183;-90
2022/05/08 05:35:05;;;;;;;12.17;7.00;;;16.20;99.90;;;;;;5017427;28;20531;-90
2022/05/08 05:37:31;;;;;;;12.20;7.10;;;16.20;99.90;;;;;;5017389;28;20180;-90
2022/05/08 05:39:56;;;;;;;11.20;7.33;;;16.20;99.90;;;;;;5010061;28;20667;-89
2022/05/08 05:42:23;;;;;;;10.67;7.50;;;16.30;99.90;;;;;;4998121;28;20656;-90
2022/05/08 05:44:49;;;;;;;12.10;8.57;;;16.30;99.90;;;;;;4997731;28;20244;-90
2022/05/08 05:49:59;;;;;;;14.23;7.07;;;16.30;99.90;;;;;;5024817;28;20265;-90
2022/05/08 05:52:24;;;;;;;10.53;6.70;;;16.20;99.90;;;;;;5017301;28;20629;-90
2022/05/08 05:54:51;;;;;;;12.37;7.23;;;16.40;99.90;;;;;;5017007;28;20676;-90
2022/05/08 05:57:17;;;;;;;11.57;7.53;;;16.30;99.90;;;;;;5016117;28;20726;-90
2022/05/08 05:59:42;;;;;;;12.73;8.33;;;16.50;99.90;;;;;;5016777;28;20181;-90
2022/05/08 06:02:08;;;;;;;10.53;7.50;;;16.70;99.90;;;;;;5014824;28;20181;-90
2022/05/08 06:04:34;;;;;;;9.23;6.77;;;16.60;99.90;;;;;;5015535;28;20230;-90
2022/05/08 06:06:59;;;;;;;11.93;7.83;;;16.60;99.90;;;;;;5016953;28;20188;-90
2022/05/08 06:09:25;;;;;;;12.73;8.23;;;16.60;99.90;;;;;;5013826;28;20176;-90
2022/05/08 06:11:52;;;;;;;11.27;7.30;;;16.80;99.90;;;;;;4997279;28;20184;-90
2022/05/08 06:14:18;;;;;;;13.23;7.43;;;16.90;99.90;;;;;;4996861;28;20212;-90
2022/05/08 06:16:44;;;;;;;12.13;7.37;;;16.80;99.90;;;;;;4997291;28;20552;-90
2022/05/08 06:19:10;;;;;;;9.97;7.03;;;16.70;99.90;;;;;;4998242;28;20177;-90
2022/05/08 06:21:36;;;;;;;14.53;7.60;;;16.90;99.90;;;;;;5009728;28;20200;-90
2022/05/08 06:24:01;;;;;;;12.60;7.57;;;17.00;99.90;;;;;;5016916;28;20188;-90
2022/05/08 06:26:27;;;;;;;12.33;7.20;;;17.00;99.90;;;;;;5016736;28;20180;-90
2022/05/08 06:28:55;;;;;;;11.17;7.03;;;17.00;99.90;;;;;;5016366;28;20203;-89
2022/05/08 06:31:21;;;;;;;10.53;7.23;;;16.90;99.90;;;;;;5014120;28;20194;-89
2022/05/08 06:33:47;;;;;;;12.87;7.60;;;16.90;99.90;;;;;;5016419;28;20212;-90
2022/05/08 06:36:12;;;;;;;10.73;7.67;;;16.80;99.90;;;;;;5006827;28;20680;-89
2022/05/08 06:38:38;;;;;;;12.27;7.70;;;16.80;99.90;;;;;;4996981;28;20207;-90
2022/05/08 06:41:04;;;;;;;10.33;6.83;;;16.80;99.90;;;;;;4996742;28;20188;-90
2022/05/08 06:43:31;;;;;;;11.03;7.13;;;16.70;99.90;;;;;;4996588;28;20661;-90
2022/05/08 06:45:56;;;;;;;10.27;7.27;;;16.80;99.90;;;;;;4996713;28;20180;-90
2022/05/08 06:48:22;;;;;;;17.27;8.23;;;16.90;99.90;;;;;;4996804;28;20177;-90
2022/05/08 06:50:48;;;;;;;12.77;8.40;;;17.00;99.90;;;;;;5009339;28;20181;-89
2022/05/08 06:53:13;;;;;;;13.13;7.80;;;17.20;99.90;;;;;;5016334;28;20583;-90
2022/05/08 06:55:40;;;;;;;14.97;8.00;;;17.10;99.90;;;;;;5016134;28;20180;-90
2022/05/08 06:58:06;;;;;;;11.90;7.27;;;17.30;99.90;;;;;;5016107;28;20179;-90
2022/05/08 07:03:16;;;;;;;13.90;8.57;;;17.50;99.90;;;;;;5033616;28;20245;-90
2022/05/08 07:05:45;;;;;;;13.60;8.00;;;17.50;99.90;;;;;;5015924;28;20188;-90
2022/05/08 07:08:12;;;;;;;10.30;7.53;;;17.40;99.90;;;;;;5016121;28;20181;-88
2022/05/08 07:10:37;;;;;;;12.10;7.20;;;17.40;99.90;;;;;;5006779;28;20185;-90
2022/05/08 07:13:03;;;;;;;14.43;7.43;;;17.40;99.90;;;;;;4996636;28;20559;-90
2022/05/08 07:15:28;;;;;;;18.23;8.00;;;17.40;99.90;;;;;;4996626;28;20173;-90
2022/05/08 07:17:54;;;;;;;11.00;6.90;;;17.50;99.90;;;;;;5002176;28;20189;-90
2022/05/08 07:20:20;;;;;;;10.30;7.00;;;17.60;99.90;;;;;;5010451;28;20201;-90
2022/05/08 07:22:45;;;;;;;11.10;6.93;;;17.60;99.90;;;;;;4996345;28;20205;-90
2022/05/08 07:25:12;;;;;;;11.50;7.80;;;17.70;99.90;;;;;;4996423;28;20204;-90
2022/05/08 07:27:39;;;;;;;13.40;8.20;;;17.70;99.80;;;;;;4998564;28;20267;-89
2022/05/08 07:30:06;;;;;;;12.57;7.40;;;17.70;99.70;;;;;;5015990;28;20169;-90
2022/05/08 07:32:34;;;;;;;15.20;8.67;;;17.60;99.80;;;;;;5005756;28;20189;-89
2022/05/08 07:37:44;;;;;;;11.40;7.53;;;17.90;99.60;;;;;;5033725;28;20529;-90
2022/05/08 07:40:13;;;;;;;11.90;7.90;;;18.10;98.80;;;;;;5015642;28;20177;-90
2022/05/08 07:42:39;;;;;;;11.53;7.23;;;18.10;98.60;;;;;;5015612;28;20261;-90
2022/05/08 07:45:07;;;;;;;13.90;7.53;;;18.20;98.40;;;;;;5013674;28;20208;-90
2022/05/08 07:47:33;;;;;;;12.57;6.90;;;18.20;98.40;;;;;;4998321;28;20553;-90
2022/05/08 07:49:59;;;;;;;12.33;7.30;;;18.20;98.20;;;;;;4998810;28;20189;-90
2022/05/08 07:52:27;;;;;;;12.07;7.33;;;18.20;98.00;;;;;;5019508;28;20284;-90
2022/05/08 07:54:53;;;;;;;12.60;7.23;;;18.20;98.00;;;;;;5019417;28;20209;-90
2022/05/08 07:57:18;;;;;;;9.43;6.57;;;18.30;97.50;;;;;;5006984;28;20181;-90
2022/05/08 07:59:44;;;;;;;12.80;7.30;;;18.40;97.10;;;;;;5015987;28;20209;-90
2022/05/08 08:02:10;;;;;;;14.67;7.57;;;18.40;96.80;;;;;;5019364;28;20178;-90
2022/05/08 08:04:36;;;;;;;13.03;7.67;;;18.60;96.60;;;;;;5019689;28;20657;-90
2022/05/08 08:07:03;;;;;;;17.37;7.17;;;18.50;96.80;;;;;;5014857;28;20196;-91
2022/05/08 08:09:29;;;;;;;13.43;6.80;;;18.80;96.10;;;;;;5009734;28;20273;-90
2022/05/08 08:11:56;;;;;;;17.77;8.07;;;18.80;96.10;;;;;;5004478;28;20179;-90
2022/05/08 08:14:22;;;;;;;20.37;7.63;;;18.80;96.10;;;;;;5009041;28;20232;-90
2022/05/08 08:16:48;;;;;;;16.90;8.13;;;18.80;95.80;;;;;;5016760;28;20201;-89
2022/05/08 08:19:13;;;;;;;14.27;7.03;;;18.80;95.90;;;;;;5016568;28;20208;-90
2022/05/08 08:21:39;;;;;;;10.67;5.70;;;18.90;95.70;;;;;;5004196;28;20191;-90
2022/05/08 08:24:06;;;;;;;11.67;6.70;;;18.80;95.90;;;;;;4999923;28;20547;-92
2022/05/08 08:26:31;;;;;;;17.17;7.70;;;18.80;95.80;;;;;;5003940;28;20172;-90
2022/05/08 08:28:57;;;;;;;11.70;7.03;;;19.10;95.20;;;;;;5000953;28;20210;-90
2022/05/08 08:31:23;;;;;;;14.13;7.23;;;19.00;95.00;;;;;;5001263;28;20636;-90
2022/05/08 08:33:49;;;;;;;15.10;6.87;;;18.90;95.50;;;;;;5001682;28;20233;-90
2022/05/08 08:36:15;;;;;;;13.73;7.10;;;18.90;95.00;;;;;;5001355;28;20174;-90
2022/05/08 08:38:40;;;;;;;15.20;7.23;;;18.80;95.10;;;;;;5002489;28;20195;-90
2022/05/08 08:41:08;;;;;;;16.03;7.67;;;18.90;95.40;;;;;;5002730;28;20205;-90
2022/05/08 08:49:13;;;;;;;15.60;6.50;;;18.80;95.10;;;;;;5040978;28;20189;-90
2022/05/08 08:51:41;;;;;;;13.53;6.10;;;18.80;94.90;;;;;;5021607;28;20181;-90
2022/05/08 08:54:07;;;;;;;13.80;6.67;;;18.80;95.00;;;;;;5019143;28;20213;-90
2022/05/08 08:56:33;;;;;;;14.37;6.43;;;18.90;94.90;;;;;;5018421;28;20200;-90
2022/05/08 08:58:58;;;;;;;12.97;6.30;;;18.90;94.60;;;;;;5010437;28;20376;-90
2022/05/08 09:01:25;;;;;;;13.67;6.77;;;18.80;94.30;;;;;;5017915;28;20180;-90
2022/05/08 09:03:56;;;;;;;12.90;5.87;;;18.70;94.50;;;;;;5014680;28;20638;-89
2022/05/08 09:06:21;;;;;;;13.17;5.73;;;18.60;94.90;;;;;;5017751;28;20687;-90
2022/05/08 09:08:47;;;;;;;8.90;5.63;;;18.50;94.80;;;;;;5017487;28;20186;-89
2022/05/08 09:11:31;;;;;;;12.47;5.37;;;18.50;95.00;;;;;;5016562;28;20181;-89
2022/05/08 09:13:57;;;;;;;11.07;5.03;;;18.60;94.20;;;;;;5010422;28;20222;-90
2022/05/08 09:16:23;;;;;;;10.20;4.73;;;18.60;94.00;;;;;;5037270;28;20177;-90
2022/05/08 09:18:48;;;;;;;6.83;3.77;;;18.80;93.50;;;;;;5017930;28;20188;-90
2022/05/08 09:24:12;;;;;;;7.40;3.23;;;19.00;92.30;;;;;;5035429;28;20209;-90
2022/05/08 09:26:38;;;;;;;6.97;3.27;;;19.00;92.20;;;;;;5017677;28;20186;-90
2022/05/08 09:29:04;;;;;;;8.50;3.40;;;19.10;91.40;;;;;;5017224;28;20206;-90
2022/05/08 09:31:41;;;;;;;5.97;2.87;;;19.10;91.60;;;;;;5017648;28;20181;-90
2022/05/08 09:34:07;;;;;;;8.43;3.43;;;19.10;92.00;;;;;;5017597;28;20676;-90
2022/05/08 09:36:33;;;;;;;7.13;3.10;;;19.20;91.10;;;;;;5017163;28;20186;-91
2022/05/08 09:39:00;;;;;;;10.10;3.83;;;19.20;91.50;;;;;;5017387;28;20187;-90
2022/05/08 09:41:30;;;;;;;10.37;3.17;;;19.20;91.30;;;;;;5017664;28;20266;-90
2022/05/08 09:44:11;;;;;;;12.93;3.43;;;19.20;91.00;;;;;;5004333;28;20197;-90
2022/05/08 09:46:44;;;;;;;31.33;5.43;;;19.30;91.10;;;;;;5017813;28;20172;-90
2022/05/08 09:49:21;;;;;;;9.33;3.23;;;19.30;91.00;;;;;;5017160;28;20225;-90
2022/05/08 09:51:48;;;;;;;8.70;3.23;;;19.30;91.10;;;;;;5004100;28;20181;-90
2022/05/08 09:54:18;;;;;;;11.97;3.10;;;19.40;90.90;;;;;;5016923;28;20594;-90
2022/05/08 09:56:45;;;;;;;9.30;3.10;;;19.40;91.50;;;;;;5017076;28;20261;-90
2022/05/08 09:59:11;;;;;;;8.27;3.20;;;19.40;90.60;;;;;;5017398;28;20177;-90
2022/05/08 10:01:38;;;;;;;8.50;3.33;;;19.40;90.50;;;;;;5016965;28;20224;-90
2022/05/08 10:04:04;;;;;;;8.73;2.87;;;19.60;90.40;;;;;;5017132;28;20180;-89
2022/05/08 10:06:32;;;;;;;8.37;2.53;;;19.60;88.70;;;;;;5015261;28;20204;-89
2022/05/08 10:14:33;;;;;;;6.67;3.27;;;19.60;89.20;;;;;;5014765;28;20293;-90
2022/05/08 10:17:04;;;;;;;11.13;3.70;;;19.60;89.40;;;;;;4997301;28;20543;-89
2022/05/08 10:19:32;;;;;;;6.67;2.50;;;19.70;89.10;;;;;;4997979;28;20204;-89
2022/05/08 10:22:09;;;;;;;7.60;1.80;;;19.90;89.10;;;;;;4997426;28;20229;-90
2022/05/08 10:24:47;;;;;;;9.40;3.07;;;19.90;86.00;;;;;;4997893;28;20180;-89
2022/05/08 10:27:25;;;;;;;9.03;2.70;;;19.90;87.30;;;;;;4996725;28;20615;-89
2022/05/08 10:29:50;;;;;;;12.10;2.50;;;20.10;87.80;;;;;;4997051;28;20286;-89
2022/05/08 10:32:42;;;;;;;5.77;2.00;;;20.00;85.30;;;;;;4997165;28;20199;-90
2022/05/08 10:35:16;;;;;;;5.83;2.20;;;20.00;86.00;;;;;;5008048;28;20227;-89
2022/05/08 10:38:03;;;;;;;4.03;2.03;;;20.10;84.70;;;;;;5016667;28;20272;-90
2022/05/08 10:40:33;;;;;;;10.13;2.83;;;20.10;85.90;;;;;;5009551;28;20175;-89
2022/05/08 10:43:25;;;;;;;15.70;3.33;;;20.10;85.70;;;;;;4997118;28;20184;-89
2022/05/08 10:45:51;;;;;;;8.60;2.83;;;20.20;86.20;;;;;;4996732;28;20222;-89
2022/05/08 10:48:19;;;;;;;16.47;2.93;;;20.20;85.30;;;;;;4996694;28;20213;-89
2022/05/08 10:50:48;;;;;;;10.67;3.27;;;20.30;85.50;;;;;;4996391;28;20183;-89
2022/05/08 10:53:23;;;;;;;7.40;2.93;;;20.30;85.10;;;;;;4996640;28;20200;-89
2022/05/08 10:55:49;;;;;;;7.87;2.77;;;20.30;84.00;;;;;;4996625;28;20214;-89
2022/05/08 10:58:15;;;;;;;9.67;2.97;;;20.30;84.20;;;;;;4996485;28;20582;-91
2022/05/08 11:00:40;;;;;;;9.97;2.50;;;20.30;83.90;;;;;;4996357;28;20184;-89
2022/05/08 11:03:06;;;;;;;11.77;2.43;;;20.30;83.50;;;;;;4996203;28;20525;-89
2022/05/08 11:05:38;;;;;;;9.57;2.93;;;20.40;82.60;;;;;;4996537;28;20514;-88
2022/05/08 11:08:07;;;;;;;9.37;2.63;;;20.50;82.70;;;;;;4996434;28;20230;-89
2022/05/08 11:10:39;;;;;;;6.73;2.53;;;20.60;82.00;;;;;;4996595;28;20554;-89
2022/05/08 11:13:11;;;;;;;5.93;1.80;;;20.90;79.40;;;;;;4996547;28;20176;-88
2022/05/08 11:15:45;;;;;;;7.07;1.97;;;21.40;78.20;;;;;;4996533;28;20188;-89
2022/05/08 11:18:22;;;;;;;6.57;2.00;;;22.30;77.40;;;;;;4996094;28;20216;-88
2022/05/08 11:20:53;;;;;;;6.23;2.10;;;23.50;74.90;;;;;;4996103;28;20200;-89
2022/05/08 11:23:24;;;;;;;4.53;1.70;;;24.70;71.30;;;;;;4995834;28;20194;-89
2022/05/08 11:25:54;;;;;;;5.37;1.57;;;25.80;68.00;;;;;;4996213;28;20675;-89
2022/05/08 11:28:24;;;;;;;15.00;2.77;;;26.90;64.60;;;;;;4996295;28;20201;-89
2022/05/08 11:30:51;;;;;;;6.90;1.57;;;27.90;62.90;;;;;;4996309;28;20173;-89
2022/05/08 11:36:06;;;;;;;8.38;1.92;;;30.00;58.30;;;;;;5013800;28;20700;-89
2022/05/08 11:38:53;;;;;;;6.03;2.25;;;30.70;56.30;;;;;;4995996;28;20259;-89
2022/05/08 11:41:37;;;;;;;8.30;2.00;;;31.20;55.40;;;;;;4996338;28;20581;-89
2022/05/08 11:44:15;;;;;;;4.97;2.08;;;31.90;54.10;;;;;;4996279;28;20260;-89
2022/05/08 11:46:46;;;;;;;6.93;2.33;;;32.30;52.80;;;;;;4995906;28;20272;-90
2022/05/08 11:49:32;;;;;;;6.25;1.40;;;33.10;51.00;;;;;;4996354;28;20260;-90
2022/05/08 11:52:03;;;;;;;3.15;1.08;;;33.50;47.50;;;;;;4994907;28;20193;-90
2022/05/08 11:54:35;;;;;;;2.70;1.23;;;33.80;46.60;;;;;;4996019;28;20225;-90
2022/05/08 11:57:17;;;;;;;7.13;1.30;;;34.00;46.40;;;;;;4996110;28;20212;-89
2022/05/08 11:59:45;;;;;;;3.88;1.40;;;34.40;46.90;;;;;;4996280;28;20197;-90
2022/05/08 12:02:12;;;;;;;4.45;1.85;;;34.70;46.60;;;;;;4995814;28;20185;-90
2022/05/08 12:04:39;;;;;;;4.50;1.50;;;34.80;46.40;;;;;;4995896;28;20626;-90
2022/05/08 12:07:11;;;;;;;6.10;1.48;;;34.90;46.40;;;;;;4996129;28;20660;-89
2022/05/08 12:09:57;;;;;;;4.95;1.30;;;35.20;45.70;;;;;;4996228;28;20185;-90
2022/05/08 12:12:27;;;;;;;4.30;1.33;;;35.90;45.00;;;;;;4995427;28;20280;-90
2022/05/08 12:14:55;;;;;;;6.13;1.23;;;36.20;44.80;;;;;;4995699;28;20213;-91
2022/05/08 12:17:21;;;;;;;4.00;1.35;;;36.70;44.00;;;;;;4995804;28;20181;-90
2022/05/08 12:19:57;;;;;;;6.25;1.65;;;36.80;44.00;;;;;;4995852;28;20658;-90
2022/05/08 12:22:28;;;;;;;5.10;1.20;;;36.50;43.90;;;;;;4995505;28;20216;-91
2022/05/08 12:24:58;;;;;;;3.17;1.48;;;36.80;42.90;;;;;;4995859;28;20227;-91
2022/05/08 12:27:23;;;;;;;3.10;1.08;;;36.80;43.80;;;;;;4995770;28;20177;-91
2022/05/08 12:29:50;;;;;;;3.95;1.42;;;36.50;43.70;;;;;;4995573;28;20645;-90
2022/05/08 12:32:17;;;;;;;6.07;1.20;;;36.50;43.70;;;;;;4995785;28;20611;-91
2022/05/08 12:34:44;;;;;;;2.35;0.90;;;36.60;43.70;;;;;;4996098;28;20669;-90
2022/05/08 12:37:11;;;;;;;4.50;1.23;;;37.40;43.10;;;;;;4999609;28;20187;-91
2022/05/08 12:39:38;;;;;;;3.53;0.90;;;37.40;42.30;;;;;;4999261;28;20172;-91
2022/05/08 12:42:04;;;;;;;2.28;0.82;;;37.60;42.20;;;;;;4998923;28;20185;-91
2022/05/08 12:44:31;;;;;;;5.32;1.13;;;37.70;42.40;;;;;;4998887;28;20180;-90
2022/05/08 12:46:57;;;;;;;5.15;1.50;;;37.80;42.20;;;;;;4998899;28;20173;-90
2022/05/08 12:49:24;;;;;;;12.55;1.67;;;38.10;42.30;;;;;;4999437;28;20182;-91
2022/05/08 12:51:49;;;;;;;4.28;0.80;;;38.20;42.10;;;;;;4999370;28;20264;-91
2022/05/08 12:54:15;;;;;;;2.55;1.05;;;38.30;41.30;;;;;;5000245;28;20304;-90
2022/05/08 12:56:41;;;;;;;3.20;1.10;;;38.40;41.40;;;;;;4999815;28;20173;-90
2022/05/08 13:01:51;;;;;;;3.85;1.20;;;38.50;41.70;;;;;;5018297;28;20271;-90
2022/05/08 13:04:17;;;;;;;3.28;1.10;;;38.60;41.30;;;;;;5001046;28;20235;-90
2022/05/08 13:06:43;;;;;;;3.50;1.15;;;38.90;41.60;;;;;;5002208;28;20177;-91
2022/05/08 13:09:09;;;;;;;7.07;1.67;;;39.00;41.40;;;;;;5010374;28;20212;-91
2022/05/08 13:11:36;;;;;;;4.65;1.10;;;39.20;40.80;;;;;;5006578;28;20177;-91
2022/05/08 13:14:03;;;;;;;3.17;1.15;;;39.00;41.70;;;;;;5006503;28;20235;-91
2022/05/08 13:16:29;;;;;;;3.65;0.98;;;39.10;40.60;;;;;;5003364;28;20184;-93
2022/05/08 13:18:54;;;;;;;3.38;0.90;;;39.20;40.80;;;;;;5005177;28;20182;-91
2022/05/08 13:21:20;;;;;;;3.63;1.20;;;38.90;40.60;;;;;;5001920;28;20197;-91
2022/05/08 13:23:47;;;;;;;4.30;1.33;;;39.00;40.90;;;;;;4998988;28;20594;-91
2022/05/08 13:26:13;;;;;;;5.95;3.72;;;38.80;41.10;;;;;;4998293;28;20216;-91
2022/05/08 13:28:39;;;;;;;2.65;1.30;;;39.10;41.00;;;;;;4998037;28;20189;-91
2022/05/08 13:31:05;;;;;;;3.00;1.00;;;39.80;40.80;;;;;;4998042;28;20200;-91
2022/05/08 13:33:32;;;;;;;4.25;1.20;;;40.00;39.80;;;;;;4999063;28;20232;-91
2022/05/08 13:35:58;;;;;;;4.25;1.33;;;39.80;40.70;;;;;;5013448;28;20188;-91
2022/05/08 13:38:26;;;;;;;3.05;1.10;;;39.90;40.30;;;;;;5017646;28;20527;-91